Terminal Aerodrome Forecast
Issued by NWS

Home | Current Version | Previous Version | Text Only | Print | Product List | Glossary On
Versions: 1 2 3 4 5 6 7 8 9 10 11 12 13 14 15 16 17
337
FTUS45 KVEF 211616 AAC
TAFBIH
TAF AMD
KBIH 211616Z 2116/2212 36016G24KT P6SM VCSH SCT090 BKN120
     FM211800 33017G25KT P6SM SCT090 SCT120
     FM212100 29010G20KT P6SM SCT090 SCT120
     FM220100 35015G25KT P6SM SCT200=

USA.gov is the U.S. government's official web portal to all federal, state and local government web resources and services.